Time;durP1;ratioP1;P1;durP2;ratioP2;P2;SDS_P1;SDS_P2;PMS_P1;PMS_P2;Temp;Humidity;BMP_temperature;BMP_pressure;BME280_temperature;BME280_humidity;BME280_pressure;Samples;Min_cycle;Max_cycle;Signal;HPM_P1;HPM_P2
2024/03/25 00:00:14;;;;;;;5.57;2.65;;;;;;;5.61;76.31;99742.22;2501087;28;20096;-79
2024/03/25 00:01:27;;;;;;;6.38;2.47;;;;;;;5.62;76.58;99732.72;2495084;28;20019;-80
2024/03/25 00:02:41;;;;;;;6.50;2.88;;;;;;;5.62;76.83;99737.91;2495286;28;20391;-79
2024/03/25 00:03:54;;;;;;;5.57;2.65;;;;;;;5.62;76.52;99736.19;2492337;28;20047;-79
2024/03/25 00:05:11;;;;;;;4.57;2.40;;;;;;;5.61;76.52;99744.81;2499267;28;20020;-79
2024/03/25 00:06:24;;;;;;;4.80;2.88;;;;;;;5.61;76.27;99744.81;2498822;28;20035;-79
2024/03/25 00:07:38;;;;;;;2.83;2.28;;;;;;;5.62;76.37;99736.19;2491848;28;20049;-79
2024/03/25 00:08:51;;;;;;;3.53;2.63;;;;;;;5.63;76.50;99737.91;2491035;28;20019;-79
2024/03/25 00:10:08;;;;;;;8.00;3.47;;;;;;;5.62;76.59;99736.19;2486185;28;20047;-79
2024/03/25 00:11:21;;;;;;;6.55;3.47;;;;;;;5.62;76.71;99736.19;2486902;28;20034;-80
2024/03/25 00:12:35;;;;;;;5.03;2.78;;;;;;;5.62;76.49;99732.72;2496248;28;20098;-79
2024/03/25 00:13:48;;;;;;;5.00;3.70;;;;;;;5.62;76.32;99740.50;2500763;28;20504;-79
2024/03/25 00:15:02;;;;;;;5.18;3.05;;;;;;;5.61;76.47;99746.56;2501028;28;20432;-80
2024/03/25 00:16:16;;;;;;;5.25;3.08;;;;;;;5.60;76.88;99743.09;2494156;28;20469;-79
2024/03/25 00:17:29;;;;;;;3.78;2.83;;;;;;;5.61;76.67;99739.63;2491343;28;20036;-80
2024/03/25 00:18:43;;;;;;;6.43;3.63;;;;;;;5.60;76.67;99748.28;2494961;28;20365;-79
2024/03/25 00:19:56;;;;;;;9.07;3.47;;;;;;;5.60;76.80;99734.47;2499674;28;20137;-80
2024/03/25 00:21:09;;;;;;;8.35;3.40;;;;;;;5.59;76.44;99743.97;2500736;28;20027;-80
2024/03/25 00:22:25;;;;;;;3.70;2.42;;;;;;;5.59;76.59;99741.38;2491696;28;20038;-80
2024/03/25 00:23:38;;;;;;;8.07;2.50;;;;;;;5.60;76.85;99742.22;2494739;28;20043;-80
2024/03/25 00:24:51;;;;;;;7.75;2.70;;;;;;;5.59;76.88;99743.09;2495222;28;20398;-79
2024/03/25 00:26:05;;;;;;;4.22;3.28;;;;;;;5.59;76.92;99732.75;2492187;28;20019;-79
2024/03/25 00:27:18;;;;;;;6.70;3.38;;;;;;;5.59;76.88;99730.16;2494615;28;20042;-79
2024/03/25 00:28:31;;;;;;;7.10;3.08;;;;;;;5.59;76.94;99732.75;2501492;28;20106;-77
2024/03/25 00:29:45;;;;;;;5.63;2.83;;;;;;;5.58;76.97;99731.91;2500770;28;20094;-78
2024/03/25 00:30:58;;;;;;;8.90;3.30;;;;;;;5.58;76.95;99733.63;2500042;28;20034;-79
2024/03/25 00:32:11;;;;;;;4.60;2.80;;;;;;;5.56;76.94;99728.44;2492976;28;20169;-78
2024/03/25 00:33:24;;;;;;;3.60;2.70;;;;;;;5.56;76.47;99725.00;2498755;28;20109;-78
2024/03/25 00:34:38;;;;;;;3.58;2.50;;;;;;;5.56;76.67;99723.25;2499988;28;20026;-78
2024/03/25 00:35:51;;;;;;;5.50;3.72;;;;;;;5.56;76.86;99731.03;2499388;28;20345;-78
2024/03/25 00:37:04;;;;;;;4.60;2.80;;;;;;;5.56;77.02;99718.09;2499314;28;20026;-77
2024/03/25 00:38:19;;;;;;;7.07;3.58;;;;;;;5.56;76.79;99725.84;2498724;28;20023;-78
2024/03/25 00:39:32;;;;;;;6.47;2.67;;;;;;;5.55;76.61;99724.16;2498389;28;20038;-78
2024/03/25 00:40:46;;;;;;;8.23;3.00;;;;;;;5.55;76.96;99723.25;2499887;28;20145;-78
2024/03/25 00:41:59;;;;;;;4.93;2.60;;;;;;;5.56;76.66;99736.22;2500436;28;20122;-78
2024/03/25 00:43:12;;;;;;;2.90;2.50;;;;;;;5.55;76.99;99736.19;2499152;28;20566;-78
2024/03/25 00:44:26;;;;;;;3.50;3.08;;;;;;;5.55;76.89;99737.09;2499456;28;20074;-78
2024/03/25 00:45:39;;;;;;;9.98;3.05;;;;;;;5.55;76.81;99738.78;2497756;28;20057;-77
2024/03/25 00:46:52;;;;;;;4.63;2.97;;;;;;;5.55;76.96;99733.59;2498222;28;20037;-77
2024/03/25 00:48:06;;;;;;;5.93;2.60;;;;;;;5.54;77.01;99735.34;2491014;28;20166;-76
2024/03/25 00:49:19;;;;;;;9.02;3.10;;;;;;;5.54;77.05;99727.56;2499032;28;20031;-78
2024/03/25 00:50:33;;;;;;;3.95;2.72;;;;;;;5.52;77.22;99718.94;2498847;28;20066;-79
2024/03/25 00:51:46;;;;;;;8.02;3.00;;;;;;;5.52;77.12;99729.31;2491378;28;20035;-77
2024/03/25 00:52:59;;;;;;;4.35;3.00;;;;;;;5.52;77.02;99718.09;2496944;28;20055;-78
2024/03/25 00:54:13;;;;;;;6.45;2.95;;;;;;;5.51;76.61;99724.16;2498405;28;20073;-77
2024/03/25 00:55:26;;;;;;;5.10;2.67;;;;;;;5.51;77.19;99726.75;2498933;28;20035;-77
2024/03/25 00:56:39;;;;;;;5.85;3.80;;;;;;;5.50;76.86;99731.06;2498869;28;20444;-77
2024/03/25 00:57:53;;;;;;;6.22;3.72;;;;;;;5.51;76.86;99737.09;2491689;28;20403;-76
2024/03/25 00:59:07;;;;;;;8.35;3.40;;;;;;;5.50;76.69;99725.00;2491022;28;20038;-77
2024/03/25 01:00:20;;;;;;;4.93;2.90;;;;;;;5.49;76.44;99724.13;2498347;28;20425;-76
2024/03/25 01:01:35;;;;;;;5.03;2.75;;;;;;;5.50;76.82;99732.75;2500006;28;20669;-76
2024/03/25 01:02:48;;;;;;;4.28;2.67;;;;;;;5.50;77.14;99730.16;2497739;28;20071;-76
2024/03/25 01:04:02;;;;;;;7.85;3.70;;;;;;;5.49;77.23;99729.31;2496724;28;20045;-76
2024/03/25 01:05:15;;;;;;;5.55;3.10;;;;;;;5.50;77.24;99735.34;2499318;28;20031;-77
2024/03/25 01:06:29;;;;;;;4.45;2.88;;;;;;;5.49;77.37;99731.91;2499682;28;20473;-77
2024/03/25 01:07:43;;;;;;;8.27;2.53;;;;;;;5.48;76.97;99730.19;2498301;28;20477;-77
2024/03/25 01:08:56;;;;;;;5.70;2.88;;;;;;;5.47;77.06;99734.50;2498716;28;20116;-77
2024/03/25 01:10:09;;;;;;;12.07;3.58;;;;;;;5.47;77.44;99728.44;2498383;28;20041;-77
2024/03/25 01:11:22;;;;;;;7.88;4.40;;;;;;;5.47;77.39;99726.75;2497904;28;20031;-77
2024/03/25 01:12:36;;;;;;;6.18;3.03;;;;;;;5.45;77.47;99730.22;2500145;28;20027;-77
2024/03/25 01:13:49;;;;;;;11.80;3.92;;;;;;;5.44;77.13;99726.72;2499157;28;20035;-78
2024/03/25 01:15:03;;;;;;;9.02;2.90;;;;;;;5.45;77.41;99727.63;2499590;28;20046;-78
2024/03/25 01:16:16;;;;;;;3.40;2.47;;;;;;;5.45;77.32;99725.03;2499589;28;20516;-78
2024/03/25 01:17:30;;;;;;;3.40;2.40;;;;;;;5.44;77.40;99728.47;2499870;28;20162;-78
2024/03/25 01:18:43;;;;;;;5.93;2.50;;;;;;;5.43;77.54;99721.59;2494381;28;20094;-78
2024/03/25 01:19:56;;;;;;;8.25;2.85;;;;;;;5.42;77.28;99722.44;2499305;28;20031;-78
2024/03/25 01:21:09;;;;;;;4.45;2.65;;;;;;;5.42;77.55;99732.78;2500885;28;20113;-77
2024/03/25 01:22:22;;;;;;;3.75;2.97;;;;;;;5.42;77.53;99720.72;2500359;28;20038;-77
2024/03/25 01:23:36;;;;;;;7.45;3.58;;;;;;;5.41;77.76;99721.56;2499281;28;20050;-77
2024/03/25 01:24:49;;;;;;;6.22;2.97;;;;;;;5.40;77.68;99721.59;2500067;28;20022;-78
2024/03/25 01:26:03;;;;;;;4.18;3.10;;;;;;;5.41;77.76;99718.13;2500893;28;20019;-78
2024/03/25 01:27:16;;;;;;;3.55;2.92;;;;;;;5.41;77.87;99724.16;2496936;28;20045;-78
2024/03/25 01:28:29;;;;;;;4.70;2.45;;;;;;;5.41;77.87;99710.38;2503967;28;20046;-78
2024/03/25 01:29:42;;;;;;;3.83;2.75;;;;;;;5.40;77.88;99712.09;2503718;28;20492;-78
2024/03/25 01:30:55;;;;;;;5.22;2.95;;;;;;;5.41;77.93;99723.31;2502308;28;20026;-78
2024/03/25 01:32:09;;;;;;;9.90;3.00;;;;;;;5.39;77.68;99717.25;2503184;28;20416;-79
2024/03/25 01:33:22;;;;;;;5.70;2.78;;;;;;;5.39;77.68;99719.84;2491849;29;20524;-77
2024/03/25 01:34:35;;;;;;;5.53;3.13;;;;;;;5.38;77.56;99716.41;2493407;28;20062;-78
2024/03/25 01:35:48;;;;;;;6.82;3.45;;;;;;;5.38;77.92;99712.97;2502482;28;20042;-78
2024/03/25 01:37:03;;;;;;;6.43;3.35;;;;;;;5.38;77.67;99710.38;2502547;28;20081;-78
2024/03/25 01:38:16;;;;;;;4.40;2.30;;;;;;;5.37;77.58;99712.13;2497251;28;20090;-79
2024/03/25 01:39:30;;;;;;;4.57;2.85;;;;;;;5.38;77.61;99715.56;2499599;28;20200;-78
2024/03/25 01:40:45;;;;;;;4.03;3.63;;;;;;;5.38;77.73;99705.22;2512414;28;20033;-79
2024/03/25 01:41:58;;;;;;;7.90;3.58;;;;;;;5.38;77.40;99710.38;2513521;28;20028;-77
2024/03/25 01:43:11;;;;;;;3.65;3.13;;;;;;;5.36;77.62;99709.53;2505982;28;20045;-77
2024/03/25 01:44:24;;;;;;;4.07;2.42;;;;;;;5.36;77.63;99714.69;2507365;28;20030;-78
2024/03/25 01:45:38;;;;;;;4.18;2.85;;;;;;;5.36;77.56;99712.09;2508042;28;20041;-78
2024/03/25 01:46:52;;;;;;;9.75;3.03;;;;;;;5.35;77.57;99711.25;2508583;28;20023;-78
2024/03/25 01:48:07;;;;;;;5.00;2.53;;;;;;;5.35;77.53;99712.97;2505215;28;20034;-78
2024/03/25 01:49:21;;;;;;;5.80;3.67;;;;;;;5.34;77.81;99719.84;2514909;28;20030;-78
2024/03/25 01:50:37;;;;;;;3.72;3.30;;;;;;;5.33;77.52;99712.97;2498879;28;20110;-78
2024/03/25 01:51:51;;;;;;;4.55;3.08;;;;;;;5.33;77.77;99717.28;2508435;28;20042;-77
2024/03/25 01:53:04;;;;;;;6.35;2.60;;;;;;;5.33;77.54;99712.97;2508489;28;20038;-78
2024/03/25 01:54:19;;;;;;;3.63;2.45;;;;;;;5.33;77.86;99712.13;2507987;28;20056;-77
2024/03/25 01:55:34;;;;;;;6.32;3.33;;;;;;;5.32;77.63;99703.50;2514075;28;20033;-78
2024/03/25 01:56:48;;;;;;;5.25;2.72;;;;;;;5.32;77.67;99710.38;2504613;28;20395;-78
2024/03/25 01:58:02;;;;;;;4.53;3.13;;;;;;;5.32;78.05;99713.84;2508965;28;20077;-78
2024/03/25 01:59:16;;;;;;;4.10;3.50;;;;;;;5.31;77.86;99709.53;2513822;28;20524;-77
2024/03/25 02:00:30;;;;;;;3.80;2.80;;;;;;;5.32;77.66;99711.25;2508908;28;20503;-78
2024/03/25 02:01:44;;;;;;;4.95;2.70;;;;;;;5.30;77.80;99710.41;2508379;28;20102;-77
2024/03/25 02:02:57;;;;;;;5.43;2.80;;;;;;;5.30;77.74;99705.22;2507528;28;20030;-77
2024/03/25 02:04:12;;;;;;;5.93;3.50;;;;;;;5.31;77.63;99711.25;2506507;28;20034;-77
2024/03/25 02:05:25;;;;;;;4.82;2.88;;;;;;;5.29;77.75;99706.06;2506989;28;20030;-77
2024/03/25 02:06:40;;;;;;;4.78;2.45;;;;;;;5.29;77.85;99711.25;2507055;28;20065;-77
2024/03/25 02:07:53;;;;;;;4.13;2.65;;;;;;;5.29;77.92;99707.81;2513221;28;20031;-76
2024/03/25 02:09:07;;;;;;;4.18;2.85;;;;;;;5.29;77.87;99707.81;2513805;28;20030;-77
2024/03/25 02:10:21;;;;;;;5.75;3.00;;;;;;;5.29;77.60;99705.22;2513236;28;20026;-77
2024/03/25 02:11:35;;;;;;;16.05;3.75;;;;;;;5.28;77.61;99704.38;2506654;28;20034;-77
2024/03/25 02:12:48;;;;;;;5.57;5.05;;;;;;;5.28;78.02;99703.50;2507987;28;20019;-78
2024/03/25 02:14:02;;;;;;;5.13;2.90;;;;;;;5.28;78.08;99703.50;2501912;28;20492;-78
2024/03/25 02:15:15;;;;;;;3.38;2.65;;;;;;;5.28;78.03;99695.75;2499586;28;20027;-78
2024/03/25 02:16:28;;;;;;;6.35;2.63;;;;;;;5.29;77.95;99700.03;2500192;28;20123;-78
2024/03/25 02:17:41;;;;;;;3.65;2.65;;;;;;;5.28;77.93;99700.91;2504661;28;20034;-78
2024/03/25 02:18:55;;;;;;;6.43;2.88;;;;;;;5.27;78.20;99694.00;2509756;28;20026;-78
2024/03/25 02:20:09;;;;;;;6.47;4.38;;;;;;;5.28;78.14;99693.16;2516086;28;20065;-78
2024/03/25 02:21:22;;;;;;;4.72;2.40;;;;;;;5.27;78.18;99696.59;2515862;28;20531;-78
2024/03/25 02:22:38;;;;;;;9.02;3.10;;;;;;;5.28;78.15;99698.34;2509581;28;20030;-78
2024/03/25 02:23:53;;;;;;;4.43;3.00;;;;;;;5.26;78.12;99695.75;2499829;28;20034;-78
2024/03/25 02:25:08;;;;;;;8.85;4.10;;;;;;;5.25;78.05;99700.06;2504150;28;20034;-78
2024/03/25 02:26:23;;;;;;;7.65;4.40;;;;;;;5.25;78.14;99700.06;2510140;28;20037;-78
2024/03/25 02:27:37;;;;;;;4.55;2.72;;;;;;;5.25;78.30;99700.06;2515599;28;20035;-78
2024/03/25 02:28:50;;;;;;;4.88;2.88;;;;;;;5.24;78.20;99700.94;2516781;28;20084;-78
2024/03/25 02:30:05;;;;;;;9.32;4.65;;;;;;;5.24;78.38;99698.34;2516397;28;20113;-78
2024/03/25 02:31:18;;;;;;;6.43;2.95;;;;;;;5.23;78.29;99700.91;2516008;28;21132;-78
2024/03/25 02:32:32;;;;;;;5.55;2.55;;;;;;;5.22;78.23;99694.91;2516601;28;20034;-78
2024/03/25 02:33:45;;;;;;;3.30;2.47;;;;;;;5.21;78.58;99697.47;2516243;28;20038;-78
2024/03/25 02:34:58;;;;;;;6.53;3.28;;;;;;;5.21;78.52;99703.53;2516097;28;20030;-78
2024/03/25 02:36:11;;;;;;;7.85;3.38;;;;;;;5.20;78.45;99694.03;2506598;28;20045;-78
2024/03/25 02:37:25;;;;;;;6.88;3.13;;;;;;;5.20;78.49;99693.19;2499701;28;20026;-78
2024/03/25 02:38:39;;;;;;;3.83;2.60;;;;;;;5.20;78.49;99695.75;2499615;28;20095;-78
2024/03/25 02:39:58;;;;;;;4.90;3.03;;;;;;;5.19;78.66;99700.09;2499441;28;20027;-78
2024/03/25 02:41:11;;;;;;;5.55;2.20;;;;;;;5.18;78.40;99693.16;2509101;28;20105;-78
2024/03/25 02:42:26;;;;;;;4.97;2.75;;;;;;;5.17;78.31;99691.47;2509325;28;20476;-78
2024/03/25 02:43:39;;;;;;;3.92;3.03;;;;;;;5.17;78.29;99688.88;2509195;28;20034;-78
2024/03/25 02:44:56;;;;;;;5.25;2.95;;;;;;;5.16;78.29;99686.28;2499865;28;20026;-78
2024/03/25 02:46:09;;;;;;;3.40;2.25;;;;;;;5.16;78.42;99692.34;2501174;28;20033;-77
2024/03/25 02:47:22;;;;;;;7.22;2.63;;;;;;;5.16;78.31;99696.63;2498697;28;20170;-78
2024/03/25 02:48:35;;;;;;;5.07;3.45;;;;;;;5.15;78.33;99688.00;2505269;28;20034;-77
2024/03/25 02:49:49;;;;;;;5.95;2.97;;;;;;;5.14;77.92;99694.06;2505682;28;20058;-78
2024/03/25 02:51:02;;;;;;;6.80;3.20;;;;;;;5.14;78.48;99685.44;2498622;28;20067;-77
2024/03/25 02:52:16;;;;;;;5.18;2.85;;;;;;;5.13;78.60;99684.56;2499245;28;20030;-78
2024/03/25 02:53:29;;;;;;;4.63;2.63;;;;;;;5.13;78.60;99694.03;2506207;28;20030;-78
2024/03/25 02:54:42;;;;;;;9.88;4.15;;;;;;;5.12;78.34;99693.19;2505311;28;20027;-77
2024/03/25 02:55:55;;;;;;;7.13;2.80;;;;;;;5.12;78.29;99694.91;2504759;28;20042;-78
2024/03/25 02:57:09;;;;;;;4.18;2.83;;;;;;;5.11;78.43;99688.00;2498593;28;20459;-78
2024/03/25 02:58:22;;;;;;;10.43;3.45;;;;;;;5.12;78.18;99692.34;2501618;28;20529;-78
2024/03/25 02:59:35;;;;;;;5.95;2.97;;;;;;;5.11;78.59;99680.25;2511698;28;20096;-78
2024/03/25 03:00:48;;;;;;;6.60;3.33;;;;;;;5.10;78.28;99689.75;2505560;28;20034;-78
2024/03/25 03:02:02;;;;;;;7.45;2.95;;;;;;;5.10;78.39;99687.16;2505646;28;20027;-78
2024/03/25 03:03:15;;;;;;;3.60;2.47;;;;;;;5.09;78.58;99690.63;2505708;28;20403;-78
2024/03/25 03:04:28;;;;;;;6.75;3.33;;;;;;;5.08;78.61;99686.28;2504690;28;20027;-78
2024/03/25 03:05:41;;;;;;;5.00;2.55;;;;;;;5.09;78.16;99687.19;2503093;28;20026;-78
2024/03/25 03:06:56;;;;;;;5.53;3.17;;;;;;;5.09;78.29;99682.00;2508170;28;20058;-78
2024/03/25 03:08:09;;;;;;;4.50;4.05;;;;;;;5.08;78.22;99686.28;2514216;28;20038;-78
2024/03/25 03:09:22;;;;;;;4.07;3.20;;;;;;;5.08;78.47;99688.88;2508431;28;20034;-78
2024/03/25 03:10:36;;;;;;;8.20;2.85;;;;;;;5.09;78.53;99693.19;2514898;28;20032;-78
2024/03/25 03:11:49;;;;;;;9.32;3.45;;;;;;;5.09;78.54;99688.03;2515755;28;20414;-78
2024/03/25 03:13:02;;;;;;;6.10;3.03;;;;;;;5.09;78.77;99688.03;2515389;28;20026;-78
2024/03/25 03:14:16;;;;;;;4.28;3.00;;;;;;;5.08;78.57;99691.47;2515640;28;20026;-78
2024/03/25 03:15:29;;;;;;;9.57;4.05;;;;;;;5.09;78.38;99684.59;2512103;28;20604;-78
2024/03/25 03:16:43;;;;;;;3.30;2.83;;;;;;;5.09;78.52;99689.75;2508960;28;20023;-77
2024/03/25 03:17:56;;;;;;;8.73;3.72;;;;;;;5.10;78.52;99686.31;2509552;28;20015;-77
2024/03/25 03:19:09;;;;;;;9.38;3.03;;;;;;;5.08;78.50;99694.03;2506701;28;20552;-77
2024/03/25 03:20:23;;;;;;;4.50;3.17;;;;;;;5.10;78.52;99696.66;2497887;28;20031;-77
2024/03/25 03:21:36;;;;;;;6.10;4.97;;;;;;;5.09;78.41;99685.44;2505943;28;20396;-77
2024/03/25 03:22:49;;;;;;;9.07;3.33;;;;;;;5.09;78.41;99690.63;2503966;28;20444;-77
2024/03/25 03:24:03;;;;;;;4.60;3.28;;;;;;;5.09;78.50;99682.84;2503326;28;20063;-77
2024/03/25 03:25:17;;;;;;;4.10;3.28;;;;;;;5.10;78.38;99684.56;2504878;28;20030;-78
2024/03/25 03:26:30;;;;;;;4.35;3.17;;;;;;;5.11;78.54;99690.59;2504411;28;20022;-78
2024/03/25 03:27:44;;;;;;;5.13;3.33;;;;;;;5.10;78.31;99697.50;2502487;28;20047;-77
2024/03/25 03:28:57;;;;;;;3.92;2.78;;;;;;;5.11;78.51;99695.75;2503288;28;20030;-77
2024/03/25 03:30:10;;;;;;;5.07;3.95;;;;;;;5.10;78.46;99692.31;2502471;28;20027;-77
2024/03/25 03:31:25;;;;;;;7.95;3.53;;;;;;;5.10;78.32;99689.75;2502593;28;20539;-77
2024/03/25 03:32:38;;;;;;;13.68;3.63;;;;;;;5.10;78.40;99689.75;2503325;28;20105;-77
2024/03/25 03:33:52;;;;;;;4.90;2.83;;;;;;;5.11;78.41;99694.06;2502930;28;20438;-77
2024/03/25 03:35:05;;;;;;;8.48;3.55;;;;;;;5.11;78.23;99696.66;2497067;28;20464;-76
2024/03/25 03:36:21;;;;;;;6.07;3.40;;;;;;;5.12;78.40;99697.50;2495346;28;20059;-76
2024/03/25 03:37:34;;;;;;;4.85;3.25;;;;;;;5.13;78.18;99694.91;2500416;28;20060;-77
2024/03/25 03:38:50;;;;;;;5.00;3.45;;;;;;;5.14;78.26;99690.63;2512440;28;20392;-76
2024/03/25 03:40:06;;;;;;;4.15;2.95;;;;;;;5.14;78.26;99688.88;2512538;28;20042;-77
2024/03/25 03:41:19;;;;;;;5.68;2.95;;;;;;;5.15;78.33;99697.50;2513269;28;20054;-78
2024/03/25 03:42:33;;;;;;;5.25;3.35;;;;;;;5.15;78.00;99689.75;2513153;28;20590;-77
2024/03/25 03:43:46;;;;;;;3.53;2.78;;;;;;;5.15;78.09;99690.59;2512604;28;20062;-78
2024/03/25 03:45:00;;;;;;;4.35;2.80;;;;;;;5.16;77.96;99689.75;2512761;28;20027;-77
2024/03/25 03:46:13;;;;;;;4.47;2.65;;;;;;;5.16;78.38;99686.28;2505579;28;20140;-77
2024/03/25 03:47:26;;;;;;;6.85;2.92;;;;;;;5.18;78.40;99694.91;2510176;28;20659;-77
2024/03/25 03:48:40;;;;;;;10.88;3.33;;;;;;;5.16;78.42;99684.56;2502587;28;20393;-78
2024/03/25 03:49:53;;;;;;;4.72;2.90;;;;;;;5.18;78.09;99689.72;2496581;28;20429;-77
2024/03/25 03:51:07;;;;;;;4.43;2.63;;;;;;;5.18;78.31;99692.31;2502420;28;20030;-77
2024/03/25 03:52:20;;;;;;;6.10;2.80;;;;;;;5.19;78.45;99691.47;2503286;28;20117;-77
2024/03/25 03:53:34;;;;;;;3.83;3.17;;;;;;;5.20;78.21;99695.75;2502557;28;20026;-77
2024/03/25 03:54:47;;;;;;;5.80;3.17;;;;;;;5.19;77.88;99686.28;2502798;28;20038;-77
2024/03/25 03:56:04;;;;;;;4.82;3.03;;;;;;;5.19;78.21;99692.31;2502980;28;20035;-77
2024/03/25 03:57:17;;;;;;;5.68;2.78;;;;;;;5.21;78.32;99694.88;2502279;28;20030;-77
2024/03/25 03:58:31;;;;;;;4.95;3.85;;;;;;;5.20;77.59;99694.03;2502953;28;20023;-77
2024/03/25 03:59:44;;;;;;;3.38;3.05;;;;;;;5.20;78.06;99693.19;2501781;28;20058;-77
2024/03/25 04:00:57;;;;;;;9.65;3.40;;;;;;;5.22;77.97;99692.31;2502197;28;20148;-77
2024/03/25 04:02:10;;;;;;;4.00;2.78;;;;;;;5.22;77.89;99699.22;2505911;28;20447;-77
2024/03/25 04:03:24;;;;;;;7.40;3.85;;;;;;;5.23;78.03;99699.19;2511918;28;20030;-77
2024/03/25 04:04:37;;;;;;;5.03;3.53;;;;;;;5.23;78.03;99696.59;2513025;28;20496;-77
2024/03/25 04:05:50;;;;;;;9.43;3.53;;;;;;;5.22;78.35;99694.91;2512312;28;20026;-77
2024/03/25 04:07:03;;;;;;;6.13;3.83;;;;;;;5.23;77.94;99696.59;2511588;28;20026;-76
2024/03/25 04:08:17;;;;;;;5.82;2.97;;;;;;;5.23;78.00;99695.75;2512297;28;20124;-77
2024/03/25 04:09:30;;;;;;;6.38;3.67;;;;;;;5.23;78.07;99698.34;2505861;28;20031;-77
2024/03/25 04:10:45;;;;;;;7.40;3.35;;;;;;;5.23;78.05;99698.34;2502661;28;20019;-77
2024/03/25 04:11:58;;;;;;;3.25;2.72;;;;;;;5.22;78.22;99694.03;2501928;28;20113;-77
2024/03/25 04:13:11;;;;;;;6.28;3.10;;;;;;;5.22;78.21;99700.06;2502690;28;20031;-77
2024/03/25 04:14:24;;;;;;;5.95;3.50;;;;;;;5.22;78.25;99687.13;2492198;29;20122;-77
2024/03/25 04:15:42;;;;;;;4.47;3.70;;;;;;;5.22;78.17;99694.91;2495602;28;20042;-77
2024/03/25 04:16:55;;;;;;;7.90;4.22;;;;;;;5.22;78.34;99684.56;2502274;28;20061;-77
2024/03/25 04:18:09;;;;;;;5.68;3.95;;;;;;;5.22;78.54;99696.63;2502294;28;20717;-76
2024/03/25 04:19:25;;;;;;;8.32;3.72;;;;;;;5.22;78.55;99689.72;2491633;28;20031;-77
2024/03/25 04:20:40;;;;;;;6.18;3.42;;;;;;;5.22;78.06;99686.28;2490470;28;20115;-77
2024/03/25 04:21:53;;;;;;;4.45;3.30;;;;;;;5.21;78.40;99693.19;2496188;28;20021;-77
2024/03/25 04:23:07;;;;;;;8.10;3.60;;;;;;;5.20;78.48;99688.84;2491649;28;20723;-77
2024/03/25 04:24:20;;;;;;;4.30;3.42;;;;;;;5.21;78.66;99687.13;2489516;28;20407;-77
2024/03/25 04:25:34;;;;;;;6.63;3.55;;;;;;;5.21;78.62;99684.53;2502458;28;20026;-77
2024/03/25 04:26:47;;;;;;;8.57;4.15;;;;;;;5.21;78.66;99687.13;2502180;28;20023;-77
2024/03/25 04:28:01;;;;;;;7.65;2.88;;;;;;;5.19;78.78;99681.97;2495421;28;20038;-77
2024/03/25 04:29:16;;;;;;;5.03;3.33;;;;;;;5.20;78.77;99678.50;2495880;28;20027;-76
2024/03/25 04:30:29;;;;;;;5.25;3.47;;;;;;;5.22;78.75;99686.28;2495983;28;20073;-77
2024/03/25 04:31:42;;;;;;;7.22;3.97;;;;;;;5.21;78.55;99690.59;2501661;28;20031;-77
2024/03/25 04:32:55;;;;;;;6.40;2.88;;;;;;;5.20;78.88;99681.09;2502103;28;20042;-77
2024/03/25 04:34:09;;;;;;;3.33;2.88;;;;;;;5.20;78.66;99693.19;2502269;28;20053;-77
2024/03/25 04:35:22;;;;;;;9.73;3.85;;;;;;;5.18;78.59;99692.31;2501570;28;20042;-77
2024/03/25 04:36:36;;;;;;;3.25;2.92;;;;;;;5.15;78.45;99682.84;2496008;28;20488;-77
2024/03/25 04:37:49;;;;;;;6.95;3.35;;;;;;;5.14;78.54;99686.28;2502804;28;20085;-77
2024/03/25 04:39:03;;;;;;;5.53;3.83;;;;;;;5.13;78.51;99679.38;2502436;28;20031;-77
2024/03/25 04:40:18;;;;;;;4.82;2.75;;;;;;;5.12;78.48;99682.00;2502831;28;20030;-77
2024/03/25 04:41:31;;;;;;;12.15;6.75;;;;;;;5.10;78.40;99684.56;2503117;28;20436;-77
2024/03/25 04:42:45;;;;;;;5.00;2.97;;;;;;;5.09;78.26;99684.59;2501634;28;20061;-77
2024/03/25 04:43:58;;;;;;;7.43;3.30;;;;;;;5.08;78.44;99685.44;2501710;28;20050;-77
2024/03/25 04:45:12;;;;;;;6.25;3.40;;;;;;;5.07;78.50;99683.72;2502963;28;20649;-77
2024/03/25 04:46:25;;;;;;;6.30;3.85;;;;;;;5.06;78.41;99684.56;2504225;28;20034;-78
2024/03/25 04:47:38;;;;;;;4.40;3.25;;;;;;;5.04;78.73;99687.19;2498963;28;20038;-78
2024/03/25 04:48:51;;;;;;;4.93;2.60;;;;;;;5.01;78.80;99684.59;2493674;28;20030;-78
2024/03/25 04:50:05;;;;;;;4.75;3.40;;;;;;;4.99;78.60;99694.09;2501764;28;20049;-79
2024/03/25 04:51:19;;;;;;;5.28;3.30;;;;;;;4.98;78.62;99692.34;2494151;28;20645;-78
2024/03/25 04:52:32;;;;;;;3.15;2.67;;;;;;;4.96;78.75;99696.69;2494269;28;20038;-78
2024/03/25 04:53:45;;;;;;;4.80;3.45;;;;;;;4.94;78.62;99695.81;2494662;28;20027;-78
2024/03/25 04:54:59;;;;;;;5.22;3.00;;;;;;;4.92;78.65;99689.78;2500530;28;20113;-78
2024/03/25 04:56:12;;;;;;;13.80;4.07;;;;;;;4.90;78.13;99694.94;2504021;28;20023;-78
2024/03/25 04:57:25;;;;;;;3.35;2.97;;;;;;;4.86;78.71;99693.22;2498198;28;20041;-78
2024/03/25 04:58:38;;;;;;;8.15;2.97;;;;;;;4.85;78.72;99693.22;2488057;29;20027;-78
2024/03/25 04:59:52;;;;;;;6.90;3.67;;;;;;;4.81;78.83;99688.06;2492986;28;20460;-79
2024/03/25 05:01:05;;;;;;;13.88;3.70;;;;;;;4.79;78.71;99689.78;2501423;28;20030;-78
2024/03/25 05:02:18;;;;;;;6.25;2.90;;;;;;;4.76;78.73;99694.94;2497257;28;20035;-79
2024/03/25 05:03:31;;;;;;;5.65;2.72;;;;;;;4.76;78.84;99701.84;2508636;28;20042;-79
2024/03/25 05:04:45;;;;;;;5.18;2.72;;;;;;;4.71;79.19;99693.22;2515583;28;20105;-79
2024/03/25 05:05:58;;;;;;;7.50;3.85;;;;;;;4.69;79.21;99702.72;2505243;28;20034;-79
2024/03/25 05:07:11;;;;;;;5.63;3.65;;;;;;;4.67;79.18;99700.09;2508720;28;20027;-78
2024/03/25 05:08:24;;;;;;;10.52;3.83;;;;;;;4.64;79.28;99702.69;2505297;28;20099;-78
2024/03/25 05:09:38;;;;;;;5.25;4.40;;;;;;;4.65;79.36;99706.16;2508158;28;20113;-78
2024/03/25 05:10:51;;;;;;;7.43;3.30;;;;;;;4.63;79.30;99702.72;2515368;28;20014;-79
2024/03/25 05:12:04;;;;;;;8.20;3.97;;;;;;;4.62;79.29;99703.56;2515427;28;20038;-78
2024/03/25 05:13:17;;;;;;;4.53;3.33;;;;;;;4.61;79.47;99704.44;2506968;28;20086;-78
2024/03/25 05:14:31;;;;;;;7.88;3.28;;;;;;;4.60;79.37;99703.56;2498363;28;20059;-77
2024/03/25 05:15:51;;;;;;;5.40;3.72;;;;;;;4.59;79.70;99707.91;2506467;28;20030;-78
2024/03/25 05:17:05;;;;;;;6.13;3.78;;;;;;;4.58;79.73;99706.16;2494824;29;20026;-78
2024/03/25 05:18:18;;;;;;;8.02;3.58;;;;;;;4.57;79.85;99698.41;2496990;28;20031;-79
2024/03/25 05:19:32;;;;;;;4.55;3.33;;;;;;;4.58;80.04;99710.47;2500734;28;20133;-80
2024/03/25 05:20:45;;;;;;;4.63;3.38;;;;;;;4.56;79.76;99710.44;2498309;28;20575;-78
2024/03/25 05:21:58;;;;;;;6.50;4.10;;;;;;;4.57;79.76;99706.16;2508311;28;20034;-79
2024/03/25 05:23:11;;;;;;;8.30;4.65;;;;;;;4.56;79.93;99702.69;2504171;28;20026;-77
2024/03/25 05:24:25;;;;;;;10.20;6.05;;;;;;;4.56;79.83;99702.69;2502004;28;20427;-78
2024/03/25 05:25:38;;;;;;;11.02;6.10;;;;;;;4.57;80.07;99703.59;2507979;28;20018;-78
2024/03/25 05:26:51;;;;;;;10.23;6.72;;;;;;;4.57;80.03;99695.84;2508150;28;20049;-78
2024/03/25 05:28:05;;;;;;;13.63;6.15;;;;;;;4.57;80.16;99703.59;2508389;28;20047;-78
2024/03/25 05:29:18;;;;;;;8.32;6.15;;;;;;;4.57;80.24;99703.59;2504207;28;20019;-78
2024/03/25 05:30:31;;;;;;;10.18;4.55;;;;;;;4.58;80.16;99706.16;2504410;28;20034;-78
2024/03/25 05:31:58;;;;;;;5.13;3.78;;;;;;;4.58;80.39;99710.47;2498361;28;20035;-78
2024/03/25 05:33:12;;;;;;;8.02;3.90;;;;;;;4.57;80.20;99708.75;2510073;28;20033;-78
2024/03/25 05:34:26;;;;;;;7.45;4.63;;;;;;;4.58;80.39;99715.63;2504498;28;20050;-78
2024/03/25 05:35:40;;;;;;;8.23;3.53;;;;;;;4.60;80.35;99708.75;2501163;28;20034;-79
2024/03/25 05:36:54;;;;;;;6.22;4.55;;;;;;;4.60;80.42;99701.00;2490807;28;20114;-77
2024/03/25 05:38:07;;;;;;;5.45;3.65;;;;;;;4.62;80.50;99701.88;2492674;28;20057;-78
2024/03/25 05:39:21;;;;;;;6.80;3.88;;;;;;;4.63;80.40;99711.31;2498110;28;20035;-78
2024/03/25 05:40:34;;;;;;;7.30;3.80;;;;;;;4.65;80.32;99709.59;2489003;29;20104;-77
2024/03/25 05:41:48;;;;;;;7.65;2.88;;;;;;;4.66;80.53;99703.56;2492763;28;20037;-79
2024/03/25 05:43:01;;;;;;;6.78;4.32;;;;;;;4.69;80.41;99711.31;2503836;28;20181;-78
2024/03/25 05:44:15;;;;;;;5.03;3.83;;;;;;;4.71;80.40;99707.00;2504758;28;20042;-78
2024/03/25 05:45:28;;;;;;;12.13;3.83;;;;;;;4.75;80.54;99706.16;2504282;28;20038;-79
2024/03/25 05:46:41;;;;;;;6.47;3.80;;;;;;;4.76;80.36;99700.13;2498398;28;20037;-79
2024/03/25 05:47:54;;;;;;;5.43;4.07;;;;;;;4.81;80.31;99702.72;2488234;28;20057;-78
2024/03/25 05:49:07;;;;;;;6.60;3.78;;;;;;;4.84;80.24;99701.84;2494817;28;20508;-78
2024/03/25 05:50:21;;;;;;;9.10;3.47;;;;;;;4.87;80.28;99696.66;2501820;28;20033;-78